Jbu Maas — 3EQY6 — position and weather

sailwx.info

Track history (hours):
 
Tides and Currents Weather Stations Pressure Air Temp Water Temp Dewpoint Dewpoint Depression Visibility Wind Speed Wind Dir Waves Ship Positions

Jbu Maas

Last reported at 2016-Sep-24 10:33 UTC. Time now 2016-Sep-25 12:16 UTC.
Position N 54°41' W 001°02'.

Length 126 m; draft 5.4 m.

Type: Tanker. MMSI: 372492000.

Date/timePositionNaut miles runAvg speedWind from/ knotsBaromVisibWave heightAir tempDewpointWater temp
2016-Sep-24 10:33N 54°41' W 001°02'0 0.0
2016-Sep-24 09:34N 54°41' W 001°02'5 0.2
2016-Sep-23 09:26N 54°42' W 000°54'19 4.0
2016-Sep-23 04:33N 54°36' W 000°22'9 8.9
2016-Sep-23 03:33N 54°32' W 000°08'10 9.8
2016-Sep-23 02:33N 54°28' E 000°07'1110.6
2016-Sep-23 01:33N 54°23' E 000°23'177 8.4
2016-Sep-22 04:32N 51°52' E 002°55'1110.7
2016-Sep-22 03:33N 51°46' E 003°09'23 7.6
2016-Sep-22 00:33N 51°25' E 003°23'1311.7
2016-Sep-21 23:29N 51°28' E 003°42'0 0.0
2016-Sep-21 22:26N 51°28' E 003°42'0 0.0
2016-Sep-21 19:32N 51°28' E 003°42'0 0.0
2016-Sep-21 16:20N 51°28' E 003°42'0 0.0
2016-Sep-21 09:33N 51°28' E 003°42'6 5.6
2016-Sep-21 08:34N 51°25' E 003°34'3913.1
2016-Sep-21 05:33N 51°22' E 002°31'19 9.6
2016-Sep-21 03:33N 51°13' E 002°04'1111.2
2016-Sep-21 02:33N 51°08' E 001°48'19510.8
2016-Sep-20 08:32N 49°49' W 002°52'1312.6
2016-Sep-20 07:32N 49°46' W 003°11'  
2016-Sep-14 22:32N 49°59' W 005°26'0 0.0
2016-Sep-14 21:32N 49°59' W 005°26'  
Track history (hours):
 
Tides and Currents Weather Stations Pressure Air Temp Water Temp Dewpoint Dewpoint Depression Visibility Wind Speed Wind Dir Waves Ship Positions

Jbu Maas

Last reported at 2016-Sep-24 10:33 UTC. Time now 2016-Sep-25 12:16 UTC.
Position N 54°41' W 001°02'.

Length 126 m; draft 5.4 m.

Type: Tanker. MMSI: 372492000.

Date/timePositionNaut miles runAvg speedWind from/ knotsBaromVisibWave heightAir tempDewpointWater temp
2016-Sep-24 10:33N 54°41' W 001°02'0 0.0
2016-Sep-24 09:34N 54°41' W 001°02'5 0.2
2016-Sep-23 09:26N 54°42' W 000°54'19 4.0
2016-Sep-23 04:33N 54°36' W 000°22'9 8.9
2016-Sep-23 03:33N 54°32' W 000°08'10 9.8
2016-Sep-23 02:33N 54°28' E 000°07'1110.6
2016-Sep-23 01:33N 54°23' E 000°23'177 8.4
2016-Sep-22 04:32N 51°52' E 002°55'1110.7
2016-Sep-22 03:33N 51°46' E 003°09'23 7.6
2016-Sep-22 00:33N 51°25' E 003°23'1311.7
2016-Sep-21 23:29N 51°28' E 003°42'0 0.0
2016-Sep-21 22:26N 51°28' E 003°42'0 0.0
2016-Sep-21 19:32N 51°28' E 003°42'0 0.0
2016-Sep-21 16:20N 51°28' E 003°42'0 0.0
2016-Sep-21 09:33N 51°28' E 003°42'6 5.6
2016-Sep-21 08:34N 51°25' E 003°34'3913.1
2016-Sep-21 05:33N 51°22' E 002°31'19 9.6
2016-Sep-21 03:33N 51°13' E 002°04'1111.2
2016-Sep-21 02:33N 51°08' E 001°48'19510.8
2016-Sep-20 08:32N 49°49' W 002°52'1312.6
2016-Sep-20 07:32N 49°46' W 003°11'  
2016-Sep-14 22:32N 49°59' W 005°26'0 0.0
2016-Sep-14 21:32N 49°59' W 005°26'  

Dump ship's entire track history